Avon, Mississippi
Current Conditions -  °F | °C
As of 4:32 AM on Monday 20 Oct 2014 (Local Time) from KGLH Reporting Station
Haze Haze  
Wind Chill: 47°   Ceiling: 200
Heat Index: 47°   Visibility: 1.2mi
Dew Point: 45°   Wind: 0mph
Humidity: 93%   Direction: NA
Pressure: 30.06"   Gusts: NA
Location:  33.23°N, 91.05°W
Report Text: KGLH 200932Z AUTO 00000KT 1 1/4SM BR BKN002 08/07 A3006 RMK AO2 T00830072
Loading
Personal Weather Stations






























Interactive Weather Map
Tropical Storm Tracking
New forecast layout! Learn more

10-Day Weather Forecast

Advertisements
Track Severe Weather on mobile